createdAt,value
2018-11-23T00:01:58.449Z,27.17
2018-11-23T00:04:26.048Z,27.87
2018-11-23T00:06:53.757Z,27.53
2018-11-23T00:09:21.349Z,28.53
2018-11-23T00:11:49.102Z,28.60
2018-11-23T00:14:16.870Z,25.77
2018-11-23T00:16:44.476Z,24.80
2018-11-23T00:19:12.082Z,25.77
2018-11-23T00:21:39.660Z,27.00
2018-11-23T00:24:07.327Z,29.23
2018-11-23T00:26:34.901Z,26.97
2018-11-23T00:29:02.587Z,25.60
2018-11-23T00:31:30.186Z,26.47
2018-11-23T00:33:57.745Z,23.67
2018-11-23T00:36:25.474Z,23.30
2018-11-23T00:38:53.054Z,25.07
2018-11-23T00:41:20.698Z,25.80
2018-11-23T00:43:48.277Z,26.17
2018-11-23T00:46:15.896Z,27.37
2018-11-23T00:48:43.471Z,26.67
2018-11-23T00:51:11.077Z,25.07
2018-11-23T00:53:38.600Z,26.33
2018-11-23T00:56:06.146Z,27.30
2018-11-23T00:58:33.793Z,25.00
2018-11-23T01:01:01.312Z,26.90
2018-11-23T01:03:28.935Z,28.80
2018-11-23T01:05:56.496Z,28.93
2018-11-23T01:08:24.096Z,23.47
2018-11-23T01:10:51.641Z,28.47
2018-11-23T01:13:19.266Z,23.63
2018-11-23T01:15:46.833Z,25.57
2018-11-23T01:18:14.545Z,25.33
2018-11-23T01:20:42.198Z,27.30
2018-11-23T01:23:09.741Z,28.60
2018-11-23T01:25:37.368Z,23.90
2018-11-23T01:28:04.909Z,23.93
2018-11-23T01:30:32.589Z,27.23
2018-11-23T01:33:00.197Z,26.27
2018-11-23T01:35:27.884Z,26.70
2018-11-23T01:37:55.525Z,24.70
2018-11-23T01:40:28.400Z,27.07
2018-11-23T01:42:56.405Z,23.67
2018-11-23T01:45:24.069Z,23.97
2018-11-23T01:47:51.724Z,24.13
2018-11-23T01:50:21.712Z,24.70
2018-11-23T01:52:49.868Z,23.27
2018-11-23T01:55:18.241Z,24.97
2018-11-23T01:57:46.056Z,24.07
2018-11-23T02:00:29.374Z,25.10
2018-11-23T02:02:57.430Z,24.83
2018-11-23T02:05:24.964Z,27.43
2018-11-23T02:07:52.504Z,25.10
2018-11-23T02:10:20.224Z,25.17
2018-11-23T02:12:47.743Z,23.93
2018-11-23T02:15:17.485Z,24.73
2018-11-23T02:17:45.314Z,24.27
2018-11-23T02:20:14.124Z,24.70
2018-11-23T02:22:41.708Z,28.13
2018-11-23T02:25:09.384Z,25.13
2018-11-23T02:27:36.905Z,24.30
2018-11-23T02:30:17.627Z,27.77
2018-11-23T02:32:45.235Z,27.37
2018-11-23T02:35:13.434Z,27.13
2018-11-23T02:37:41.115Z,25.57
2018-11-23T02:40:09.881Z,31.67
2018-11-23T02:42:37.746Z,26.47
2018-11-23T02:45:07.760Z,26.77
2018-11-23T02:47:35.510Z,26.07
2018-11-23T02:50:03.065Z,26.07
2018-11-23T02:52:30.625Z,24.97
2018-11-23T02:54:58.210Z,26.07
2018-11-23T02:57:25.740Z,24.40
2018-11-23T02:59:53.449Z,26.23
2018-11-23T03:02:21.019Z,26.50
2018-11-23T03:04:48.700Z,28.53
2018-11-23T03:07:16.231Z,23.10
2018-11-23T03:09:43.909Z,27.63
2018-11-23T03:12:11.458Z,26.13
2018-11-23T03:14:39.134Z,27.13
2018-11-23T03:17:06.678Z,25.53
2018-11-23T03:19:34.260Z,26.37
2018-11-23T03:22:01.804Z,27.03
2018-11-23T03:24:29.349Z,27.17
2018-11-23T03:26:56.899Z,27.93
2018-11-23T03:29:24.474Z,25.37
2018-11-23T03:31:52.169Z,27.47
2018-11-23T03:34:19.697Z,24.43
2018-11-23T03:36:47.285Z,30.10
2018-11-23T03:39:14.815Z,27.03
2018-11-23T03:41:42.344Z,28.63
2018-11-23T03:44:10.004Z,27.07
2018-11-23T03:46:37.549Z,25.87
2018-11-23T03:49:05.278Z,28.37
2018-11-23T03:51:32.808Z,29.47
2018-11-23T03:54:00.347Z,27.00
2018-11-23T03:56:28.040Z,29.07
2018-11-23T03:58:55.549Z,28.10
2018-11-23T04:01:23.252Z,29.77
2018-11-23T04:03:50.839Z,28.67
2018-11-23T04:06:18.456Z,28.97
2018-11-23T04:08:46.008Z,28.83
2018-11-23T04:11:13.551Z,27.07
2018-11-23T04:13:41.084Z,26.50
2018-11-23T04:16:08.665Z,28.27
2018-11-23T04:18:36.204Z,24.73
2018-11-23T04:21:03.750Z,27.73
2018-11-23T04:23:32.372Z,28.27
2018-11-23T04:25:59.948Z,26.50
2018-11-23T04:28:27.512Z,27.80
2018-11-23T04:30:55.293Z,30.90
2018-11-23T04:33:22.989Z,25.57
2018-11-23T04:35:50.755Z,27.37
2018-11-23T04:38:18.244Z,26.53
2018-11-23T04:40:45.793Z,25.73
2018-11-23T04:43:13.373Z,27.33
2018-11-23T04:45:41.069Z,28.87
2018-11-23T04:48:08.592Z,27.53
2018-11-23T04:50:36.288Z,25.17
2018-11-23T04:53:04.068Z,27.83
2018-11-23T04:55:31.602Z,26.50
2018-11-23T04:57:59.162Z,26.87
2018-11-23T05:00:26.687Z,24.60
2018-11-23T05:02:54.420Z,27.57
2018-11-23T05:05:21.948Z,29.17
2018-11-23T05:07:49.492Z,28.83
2018-11-23T05:10:17.728Z,24.83
2018-11-23T05:12:45.299Z,27.07
2018-11-23T05:15:17.239Z,27.77
2018-11-23T05:17:44.912Z,30.27
2018-11-23T05:20:13.288Z,27.37
2018-11-23T05:22:41.085Z,26.77
2018-11-23T05:25:10.172Z,26.43
2018-11-23T05:27:37.770Z,27.77
2018-11-23T05:30:09.197Z,26.03
2018-11-23T05:32:37.113Z,28.27
2018-11-23T05:35:05.929Z,26.87
2018-11-23T05:37:33.469Z,26.10
2018-11-23T05:40:01.177Z,29.23
2018-11-23T05:42:28.713Z,26.83
2018-11-23T05:44:56.556Z,26.83
2018-11-23T05:47:24.118Z,28.17
2018-11-23T05:49:51.659Z,30.63
2018-11-23T05:52:19.255Z,24.83
2018-11-23T05:54:46.917Z,26.90
2018-11-23T05:57:14.700Z,28.73
2018-11-23T05:59:42.224Z,24.00
2018-11-23T06:02:09.815Z,26.97
2018-11-23T06:04:37.348Z,26.00
2018-11-23T06:07:05.184Z,26.70
2018-11-23T06:09:32.885Z,27.37
2018-11-23T06:12:00.568Z,27.60
2018-11-23T06:14:28.139Z,28.93
2018-11-23T06:16:55.947Z,28.30
2018-11-23T06:19:23.512Z,27.03
2018-11-23T06:21:51.092Z,27.90
2018-11-23T06:24:18.663Z,29.03
2018-11-23T06:26:46.300Z,29.70
2018-11-23T06:29:14.021Z,29.33
2018-11-23T06:31:41.568Z,29.63
2018-11-23T06:34:09.183Z,29.77
2018-11-23T06:36:36.715Z,28.07
2018-11-23T06:39:06.942Z,28.43
2018-11-23T06:41:34.580Z,28.87
2018-11-23T06:44:02.186Z,26.47
2018-11-23T06:46:29.776Z,28.50
2018-11-23T06:48:57.432Z,26.40
2018-11-23T06:51:25.088Z,29.90
2018-11-23T06:53:52.673Z,28.50
2018-11-23T06:56:20.315Z,27.57
2018-11-23T06:58:47.945Z,27.33
2018-11-23T07:01:15.444Z,29.57
2018-11-23T07:03:43.084Z,28.80
2018-11-23T07:06:10.609Z,28.20
2018-11-23T07:08:38.174Z,29.73
2018-11-23T07:11:05.706Z,31.23
2018-11-23T07:13:33.718Z,28.20
2018-11-23T07:16:01.220Z,28.50
2018-11-23T07:18:28.928Z,28.50
2018-11-23T07:20:56.712Z,27.33
2018-11-23T07:23:24.336Z,30.17
2018-11-23T07:25:52.371Z,29.37
2018-11-23T07:28:19.953Z,28.70
2018-11-23T07:30:47.686Z,29.90
2018-11-23T07:33:15.232Z,27.93
2018-11-23T07:35:42.920Z,34.00
2018-11-23T07:38:10.509Z,31.90
2018-11-23T07:40:50.869Z,34.30
2018-11-23T07:43:18.406Z,31.33
2018-11-23T07:45:45.974Z,29.60
2018-11-23T07:48:13.691Z,28.13
2018-11-23T07:50:41.212Z,30.63
2018-11-23T07:53:08.864Z,28.63
2018-11-23T07:55:36.427Z,30.60
2018-11-23T07:58:04.918Z,32.00
2018-11-23T08:00:32.561Z,32.17
2018-11-23T08:03:00.111Z,28.50
2018-11-23T08:05:27.802Z,32.40
2018-11-23T08:07:55.312Z,31.00
2018-11-23T08:10:22.332Z,33.03
2018-11-23T08:12:50.613Z,34.00
2018-11-23T08:15:21.944Z,31.03
2018-11-23T08:17:49.491Z,28.67
2018-11-23T08:20:18.259Z,31.33
2018-11-23T08:22:45.858Z,31.80
2018-11-23T08:25:14.549Z,34.60
2018-11-23T08:27:42.648Z,32.07
2018-11-23T08:30:14.081Z,31.20
2018-11-23T08:32:41.731Z,32.10
2018-11-23T08:35:09.366Z,32.33
2018-11-23T08:37:37.392Z,32.10
2018-11-23T08:40:08.116Z,28.63
2018-11-23T08:42:35.664Z,33.03
2018-11-23T08:45:03.907Z,31.40
2018-11-23T08:47:31.498Z,30.50
2018-11-23T08:49:59.052Z,34.10
2018-11-23T08:52:26.739Z,29.90
2018-11-23T08:54:54.285Z,36.57
2018-11-23T08:57:21.841Z,32.70
2018-11-23T08:59:49.378Z,30.13
2018-11-23T09:02:17.029Z,29.40
2018-11-23T09:04:44.602Z,34.53
2018-11-23T09:07:12.484Z,34.43
2018-11-23T09:09:40.034Z,33.43
2018-11-23T09:12:07.572Z,33.70
2018-11-23T09:14:35.113Z,34.13
2018-11-23T09:17:03.358Z,33.63
2018-11-23T09:19:31.076Z,33.83
2018-11-23T09:21:58.644Z,31.87
2018-11-23T09:24:26.198Z,32.40
2018-11-23T09:26:53.757Z,32.63
2018-11-23T09:29:21.660Z,31.47
2018-11-23T09:31:48.985Z,35.50
2018-11-23T09:34:16.529Z,33.13
2018-11-23T09:36:44.055Z,36.43
2018-11-23T09:39:11.755Z,33.13
2018-11-23T09:41:39.297Z,36.50
2018-11-23T09:44:06.944Z,36.87
2018-11-23T09:46:34.509Z,35.00
2018-11-23T09:49:02.197Z,35.60
2018-11-23T09:51:29.736Z,30.77
2018-11-23T09:53:57.256Z,32.40
2018-11-23T09:56:24.815Z,32.63
2018-11-23T09:58:52.324Z,31.47
2018-11-23T10:01:19.950Z,31.37
2018-11-23T10:03:47.505Z,33.80
2018-11-23T10:06:15.185Z,33.47
2018-11-23T10:08:42.719Z,36.87
2018-11-23T10:11:10.464Z,33.23
2018-11-23T10:13:38.010Z,32.37
2018-11-23T10:16:05.597Z,32.30
2018-11-23T10:18:33.232Z,31.90
2018-11-23T10:21:00.782Z,32.30
2018-11-23T10:23:28.520Z,34.70
2018-11-23T10:25:56.057Z,31.80
2018-11-23T10:28:23.990Z,30.67
2018-11-23T10:30:51.505Z,34.00
2018-11-23T10:33:19.193Z,31.00
2018-11-23T10:35:46.944Z,35.43
2018-11-23T10:38:14.377Z,32.77
2018-11-23T10:40:42.076Z,31.60
2018-11-23T10:43:09.667Z,32.17
2018-11-23T10:45:37.582Z,30.80
2018-11-23T10:48:06.230Z,33.33
2018-11-23T10:50:35.449Z,34.10
2018-11-23T10:53:03.033Z,33.00
2018-11-23T10:55:31.849Z,34.73
2018-11-23T10:57:59.376Z,32.90
2018-11-23T11:00:32.652Z,33.50
2018-11-23T11:03:33.255Z,31.27
2018-11-23T11:06:08.301Z,31.90
2018-11-23T11:08:35.824Z,33.93
2018-11-23T11:11:04.100Z,33.90
2018-11-23T11:13:31.835Z,33.87
2018-11-23T11:15:59.358Z,31.20
2018-11-23T11:18:27.040Z,33.40
2018-11-23T11:20:54.578Z,33.03
2018-11-23T11:23:22.267Z,34.37
2018-11-23T11:25:49.809Z,34.47
2018-11-23T11:28:17.408Z,33.37
2018-11-23T11:30:44.924Z,34.90
2018-11-23T11:33:12.437Z,34.83
2018-11-23T11:35:39.947Z,35.97
2018-11-23T11:38:07.639Z,36.33
2018-11-23T11:40:35.164Z,33.97
2018-11-23T11:43:02.693Z,33.27
2018-11-23T11:45:30.392Z,33.87
2018-11-23T11:47:57.925Z,33.57
2018-11-23T11:50:25.634Z,32.23
2018-11-23T11:52:53.163Z,37.67
2018-11-23T11:55:20.824Z,32.70
2018-11-23T11:57:48.922Z,34.47
2018-11-23T12:00:17.919Z,33.80
2018-11-23T12:02:45.817Z,37.13
2018-11-23T12:05:13.649Z,33.47
2018-11-23T12:07:41.356Z,34.40
2018-11-23T12:10:11.641Z,35.30
2018-11-23T12:12:39.184Z,35.17
2018-11-23T12:15:07.741Z,32.30
2018-11-23T12:17:35.432Z,33.73
2018-11-23T12:20:03.581Z,32.80
2018-11-23T12:22:31.132Z,31.63
2018-11-23T12:24:58.676Z,33.63
2018-11-23T12:27:29.332Z,34.73
2018-11-23T12:29:53.943Z,32.23
2018-11-23T12:32:21.525Z,34.00
2018-11-23T12:34:50.080Z,32.33
2018-11-23T12:37:17.605Z,32.37
2018-11-23T12:39:45.432Z,36.63
2018-11-23T12:42:12.940Z,34.17
2018-11-23T12:44:40.549Z,33.47
2018-11-23T12:47:08.077Z,33.87
2018-11-23T12:49:35.582Z,30.80
2018-11-23T12:52:03.392Z,31.90
2018-11-23T12:54:30.924Z,31.93
2018-11-23T12:56:58.574Z,35.53
2018-11-23T12:59:26.122Z,33.43
2018-11-23T13:04:23.200Z,30.87
2018-11-23T13:06:50.720Z,32.73
2018-11-23T13:09:18.400Z,31.57
2018-11-23T13:11:45.941Z,32.07
2018-11-23T13:14:13.552Z,30.90
2018-11-23T13:16:41.042Z,32.93
2018-11-23T13:19:08.756Z,35.27
2018-11-23T13:21:36.388Z,31.47
2018-11-23T13:24:03.927Z,35.53
2018-11-23T13:26:31.738Z,32.87
2018-11-23T13:29:06.652Z,31.53
2018-11-23T13:31:27.353Z,31.57
2018-11-23T13:33:55.314Z,30.77
2018-11-23T13:36:23.116Z,32.57
2018-11-23T13:38:50.707Z,31.00
2018-11-23T13:41:18.247Z,36.00
2018-11-23T13:43:45.795Z,32.50
2018-11-23T13:46:13.406Z,31.30
2018-11-23T13:48:40.927Z,33.40
2018-11-23T13:51:08.440Z,31.03
2018-11-23T13:53:36.114Z,32.50
2018-11-23T13:56:04.213Z,30.30
2018-11-23T13:58:31.811Z,33.37
2018-11-23T14:00:59.369Z,33.77
2018-11-23T14:03:27.060Z,32.70
2018-11-23T14:05:54.601Z,30.20
2018-11-23T14:08:22.164Z,36.57
2018-11-23T14:10:49.714Z,30.93
2018-11-23T14:13:17.415Z,28.73
2018-11-23T14:15:45.016Z,31.20
2018-11-23T14:18:12.599Z,31.80
2018-11-23T14:20:40.149Z,31.40
2018-11-23T14:23:07.735Z,30.33
2018-11-23T14:25:35.246Z,31.70
2018-11-23T14:28:02.861Z,28.80
2018-11-23T14:30:31.805Z,32.17
2018-11-23T14:33:00.009Z,33.90
2018-11-23T14:35:28.776Z,30.70
2018-11-23T14:37:57.256Z,32.07
2018-11-23T14:40:24.965Z,28.97
2018-11-23T14:42:53.012Z,30.40
2018-11-23T14:45:24.273Z,33.40
2018-11-23T14:47:52.675Z,35.80
2018-11-23T14:50:23.376Z,33.80
2018-11-23T14:52:52.038Z,38.07
2018-11-23T14:55:19.845Z,33.40
2018-11-23T14:57:47.583Z,32.33
2018-11-23T15:00:20.594Z,34.03
2018-11-23T15:02:49.343Z,31.40
2018-11-23T15:05:17.537Z,32.37
2018-11-23T15:07:45.443Z,30.70
2018-11-23T15:10:14.385Z,31.90
2018-11-23T15:12:42.351Z,31.87
2018-11-23T15:15:15.216Z,34.60
2018-11-23T15:17:43.856Z,35.13
2018-11-23T15:20:14.353Z,31.57
2018-11-23T15:22:42.246Z,31.10
2018-11-23T15:25:10.016Z,30.07
2018-11-23T15:27:38.044Z,33.17
2018-11-23T15:30:12.115Z,33.93
2018-11-23T15:32:39.465Z,34.93
2018-11-23T15:35:07.727Z,32.50
2018-11-23T15:37:35.778Z,35.43
2018-11-23T15:40:03.352Z,33.80
2018-11-23T15:42:30.909Z,34.43
2018-11-23T15:44:58.457Z,31.20
2018-11-23T15:47:26.049Z,32.50
2018-11-23T15:49:54.209Z,35.27
2018-11-23T15:52:21.775Z,33.77
2018-11-23T15:54:49.361Z,33.97
2018-11-23T15:57:16.889Z,33.43
2018-11-23T15:59:44.421Z,38.50
2018-11-23T16:02:12.151Z,33.80
2018-11-23T16:04:39.765Z,30.83
2018-11-23T16:07:07.341Z,37.87
2018-11-23T16:09:34.887Z,32.80
2018-11-23T16:12:02.467Z,36.60
2018-11-23T16:14:30.005Z,32.87
2018-11-23T16:16:57.578Z,34.40
2018-11-23T16:19:25.101Z,36.43
2018-11-23T16:21:52.668Z,32.03
2018-11-23T16:24:20.228Z,32.83
2018-11-23T16:26:47.784Z,35.80
2018-11-23T16:29:15.350Z,36.83
2018-11-23T16:31:42.929Z,35.60
2018-11-23T16:34:10.670Z,39.53
2018-11-23T16:36:38.198Z,32.40
2018-11-23T16:39:08.333Z,33.83
2018-11-23T16:41:36.009Z,35.33
2018-11-23T16:44:03.595Z,32.57
2018-11-23T16:46:31.143Z,36.33
2018-11-23T16:48:58.884Z,36.23
2018-11-23T16:51:26.412Z,39.40
2018-11-23T16:53:54.092Z,32.23
2018-11-23T16:56:21.698Z,32.33
2018-11-23T16:58:49.386Z,35.47
2018-11-23T17:01:16.988Z,33.83
2018-11-23T17:03:44.721Z,33.50
2018-11-23T17:06:12.335Z,35.00
2018-11-23T17:08:40.066Z,34.07
2018-11-23T17:11:07.492Z,35.47
2018-11-23T17:13:35.040Z,34.13
2018-11-23T17:16:02.709Z,34.07
2018-11-23T17:18:30.223Z,34.07
2018-11-23T17:20:59.304Z,33.73
2018-11-23T17:23:25.500Z,37.07
2018-11-23T17:25:53.179Z,37.20
2018-11-23T17:28:20.840Z,38.43
2018-11-23T17:30:48.375Z,32.53
2018-11-23T17:33:15.931Z,32.07
2018-11-23T17:35:43.492Z,35.50
2018-11-23T17:38:11.110Z,33.97
2018-11-23T17:40:39.786Z,31.80
2018-11-23T17:43:07.488Z,37.73
2018-11-23T17:45:35.233Z,35.40
2018-11-23T17:48:02.858Z,32.60
2018-11-23T17:50:31.860Z,35.83
2018-11-23T17:52:59.794Z,33.10
2018-11-23T17:55:27.434Z,35.53
2018-11-23T17:57:55.513Z,37.20
2018-11-23T18:00:25.241Z,35.00
2018-11-23T18:02:53.308Z,36.73
2018-11-23T18:05:21.781Z,37.37
2018-11-23T18:07:49.757Z,36.33
2018-11-23T18:10:19.594Z,35.67
2018-11-23T18:12:47.694Z,36.10
2018-11-23T18:15:17.692Z,35.83
2018-11-23T18:17:45.992Z,36.00
2018-11-23T18:20:14.953Z,36.20
2018-11-23T18:22:42.997Z,37.43
2018-11-23T18:25:12.969Z,38.37
2018-11-23T18:27:41.018Z,35.30
2018-11-23T18:30:09.939Z,36.13
2018-11-23T18:32:37.705Z,36.57
2018-11-23T18:35:06.492Z,35.70
2018-11-23T18:37:34.093Z,35.10
2018-11-23T18:40:01.817Z,39.20
2018-11-23T18:42:29.462Z,39.53
2018-11-23T18:44:57.071Z,35.83
2018-11-23T18:47:24.815Z,39.70
2018-11-23T18:49:52.420Z,38.70
2018-11-23T18:52:20.095Z,36.87
2018-11-23T18:54:47.707Z,38.53
2018-11-23T18:57:15.327Z,38.97
2018-11-23T18:59:43.148Z,33.73
2018-11-23T19:02:10.749Z,40.03
2018-11-23T19:04:38.440Z,33.53
2018-11-23T19:07:08.612Z,37.67
2018-11-23T19:09:33.632Z,37.30
2018-11-23T19:12:01.273Z,34.83
2018-11-23T19:14:28.957Z,39.90
2018-11-23T19:16:56.595Z,36.93
2018-11-23T19:19:24.165Z,34.00
2018-11-23T19:21:51.828Z,35.67
2018-11-23T19:24:19.383Z,36.00
2018-11-23T19:26:46.943Z,33.53
2018-11-23T19:29:14.661Z,39.37
2018-11-23T19:31:42.241Z,32.90
2018-11-23T19:34:09.891Z,34.30
2018-11-23T19:36:37.451Z,36.27
2018-11-23T19:39:06.785Z,35.80
2018-11-23T19:41:34.545Z,33.03
2018-11-23T19:44:02.157Z,35.57
2018-11-23T19:46:29.793Z,35.87
2018-11-23T19:48:57.536Z,32.20
2018-11-23T19:51:25.169Z,35.03
2018-11-23T19:53:52.860Z,35.90
2018-11-23T19:56:20.418Z,36.20
2018-11-23T19:58:47.982Z,34.83
2018-11-23T20:01:15.526Z,38.07
2018-11-23T20:03:43.118Z,42.07
2018-11-23T20:06:10.852Z,38.43
2018-11-23T20:08:38.442Z,40.60
2018-11-23T20:11:06.200Z,34.80
2018-11-23T20:13:33.790Z,35.43
2018-11-23T20:16:01.501Z,37.23
2018-11-23T20:18:29.224Z,35.03
2018-11-23T20:20:56.871Z,33.00
2018-11-23T20:23:24.626Z,37.97
2018-11-23T20:25:52.290Z,33.50
2018-11-23T20:28:19.895Z,38.50
2018-11-23T20:30:47.521Z,36.37
2018-11-23T20:33:15.326Z,38.73
2018-11-23T20:35:42.924Z,32.63
2018-11-23T20:38:10.528Z,40.10
2018-11-23T20:40:38.173Z,36.13
2018-11-23T20:43:05.848Z,34.37
2018-11-23T20:45:33.497Z,39.43
2018-11-23T20:48:01.171Z,35.77
2018-11-23T20:50:28.755Z,35.93
2018-11-23T20:52:56.445Z,35.77
2018-11-23T20:55:24.015Z,39.17
2018-11-23T20:57:51.621Z,38.43
2018-11-23T21:00:19.981Z,36.70
2018-11-23T21:02:48.601Z,36.10
2018-11-23T21:05:17.745Z,33.20
2018-11-23T21:07:46.159Z,35.73
2018-11-23T21:10:22.630Z,33.17
2018-11-23T21:12:51.228Z,34.13
2018-11-23T21:15:26.725Z,33.60
2018-11-23T21:17:54.826Z,33.73
2018-11-23T21:20:22.403Z,33.37
2018-11-23T21:22:49.959Z,35.87
2018-11-23T21:25:17.807Z,37.40
2018-11-23T21:27:45.528Z,32.70
2018-11-23T21:30:16.002Z,34.70
2018-11-23T21:32:44.222Z,34.53
2018-11-23T21:35:12.233Z,32.50
2018-11-23T21:37:39.780Z,31.70
2018-11-23T21:40:10.460Z,31.43
2018-11-23T21:42:38.016Z,33.03
2018-11-23T21:45:09.731Z,35.53
2018-11-23T21:47:37.472Z,37.23
2018-11-23T21:50:08.332Z,35.90
2018-11-23T21:52:35.998Z,34.60
2018-11-23T21:55:03.905Z,30.37
2018-11-23T21:57:31.550Z,33.00
2018-11-23T21:59:59.150Z,34.23
2018-11-23T22:02:26.764Z,30.47
2018-11-23T22:04:54.486Z,32.60
2018-11-23T22:07:22.049Z,32.93
2018-11-23T22:09:49.640Z,30.93
2018-11-23T22:12:17.251Z,34.87
2018-11-23T22:14:44.821Z,30.57
2018-11-23T22:17:12.452Z,31.43
2018-11-23T22:19:40.030Z,30.93
2018-11-23T22:22:07.713Z,32.43
2018-11-23T22:24:35.297Z,31.97
2018-11-23T22:27:02.889Z,30.60
2018-11-23T22:29:30.577Z,31.67
2018-11-23T22:31:58.212Z,33.73
2018-11-23T22:34:26.024Z,33.23
2018-11-23T22:36:53.951Z,29.90
2018-11-23T22:39:21.825Z,34.90
2018-11-23T22:41:49.583Z,35.67
2018-11-23T22:44:17.273Z,33.23
2018-11-23T22:46:45.124Z,32.93
2018-11-23T22:49:12.920Z,33.20
2018-11-23T22:51:40.692Z,31.60
2018-11-23T22:54:08.427Z,30.10
2018-11-23T22:56:36.149Z,30.93
2018-11-23T22:59:04.265Z,30.30
2018-11-23T23:01:31.947Z,31.33
2018-11-23T23:03:59.658Z,30.43
2018-11-23T23:06:27.478Z,30.87
2018-11-23T23:08:55.211Z,27.43
2018-11-23T23:11:22.945Z,29.73
2018-11-23T23:13:50.602Z,32.10
2018-11-23T23:16:18.285Z,26.87
2018-11-23T23:18:46.005Z,31.53
2018-11-23T23:21:13.693Z,29.87
2018-11-23T23:23:41.573Z,32.27
2018-11-23T23:26:09.288Z,30.23
2018-11-23T23:28:37.032Z,31.40
2018-11-23T23:31:05.188Z,30.03
2018-11-23T23:33:32.888Z,30.07
2018-11-23T23:36:00.692Z,31.33
2018-11-23T23:38:28.400Z,30.37
2018-11-23T23:40:56.172Z,30.30
2018-11-23T23:43:23.893Z,29.73
2018-11-23T23:45:51.630Z,30.20
2018-11-23T23:48:19.480Z,33.43
2018-11-23T23:50:47.228Z,30.13
2018-11-23T23:53:14.981Z,30.17
2018-11-23T23:55:42.658Z,30.27
2018-11-23T23:58:10.335Z,30.43
